sensor_id;sensor_type;location;lat;lon;timestamp;pressure;altitude;pressure_sealevel;temperature;humidity
57574;BME280;43409;48.858;21.906;2022-09-03T00:00:47;98643.88;;;23.96;37.58
57574;BME280;43409;48.858;21.906;2022-09-03T00:03:50;98646.03;;;23.99;37.44
57574;BME280;43409;48.858;21.906;2022-09-03T00:11:21;98644.94;;;24.00;37.60
57574;BME280;43409;48.858;21.906;2022-09-03T00:14:03;98639.56;;;24.00;37.53
57574;BME280;43409;48.858;21.906;2022-09-03T00:16:44;98637.72;;;24.01;37.44
57574;BME280;43409;48.858;21.906;2022-09-03T00:19:16;98641.47;;;24.00;37.54
57574;BME280;43409;48.858;21.906;2022-09-03T00:21:50;98636.91;;;24.00;37.52
57574;BME280;43409;48.858;21.906;2022-09-03T00:24:20;98632.63;;;23.99;37.47
57574;BME280;43409;48.858;21.906;2022-09-03T00:26:51;98629.94;;;23.99;37.50
57574;BME280;43409;48.858;21.906;2022-09-03T00:29:22;98633.44;;;24.00;37.46
57574;BME280;43409;48.858;21.906;2022-09-03T00:31:55;98625.13;;;23.96;37.65
57574;BME280;43409;48.858;21.906;2022-09-03T00:34:29;98628.59;;;23.97;37.55
57574;BME280;43409;48.858;21.906;2022-09-03T00:36:56;98612.53;;;23.91;37.49
57574;BME280;43409;48.858;21.906;2022-09-03T00:39:23;98627.28;;;23.99;37.54
57574;BME280;43409;48.858;21.906;2022-09-03T00:44:41;98625.66;;;23.98;37.54
57574;BME280;43409;48.858;21.906;2022-09-03T00:55:46;98624.03;;;23.97;37.54
57574;BME280;43409;48.858;21.906;2022-09-03T01:00:52;98619.22;;;23.94;37.57
57574;BME280;43409;48.858;21.906;2022-09-03T01:03:39;98631.00;;;23.98;37.68
57574;BME280;43409;48.858;21.906;2022-09-03T01:06:18;98634.75;;;23.97;37.58
57574;BME280;43409;48.858;21.906;2022-09-03T01:09:05;98638.53;;;23.96;37.73
57574;BME280;43409;48.858;21.906;2022-09-03T01:14:42;98638.53;;;23.96;37.71
57574;BME280;43409;48.858;21.906;2022-09-03T01:20:23;98646.56;;;23.96;37.81
57574;BME280;43409;48.858;21.906;2022-09-03T01:34:19;98648.69;;;23.94;37.85
57574;BME280;43409;48.858;21.906;2022-09-03T01:37:57;98656.44;;;23.95;37.78
57574;BME280;43409;48.858;21.906;2022-09-03T01:40:02;98652.19;;;23.94;37.88
57574;BME280;43409;48.858;21.906;2022-09-03T01:42:57;98653.50;;;23.92;37.84
57574;BME280;43409;48.858;21.906;2022-09-03T01:45:36;98657.25;;;23.91;38.01
57574;BME280;43409;48.858;21.906;2022-09-03T01:48:19;98661.28;;;23.93;37.99
57574;BME280;43409;48.858;21.906;2022-09-03T02:01:56;98651.63;;;23.92;37.99
57574;BME280;43409;48.858;21.906;2022-09-03T02:04:25;98661.28;;;23.93;37.85
57574;BME280;43409;48.858;21.906;2022-09-03T02:06:52;98656.72;;;23.94;37.91
57574;BME280;43409;48.858;21.906;2022-09-03T02:09:19;98649.78;;;23.93;38.05
57574;BME280;43409;48.858;21.906;2022-09-03T02:11:50;98651.88;;;23.91;37.89
57574;BME280;43409;48.858;21.906;2022-09-03T02:14:18;98654.84;;;23.89;37.95
57574;BME280;43409;48.858;21.906;2022-09-03T02:16:44;98657.25;;;23.91;38.00
57574;BME280;43409;48.858;21.906;2022-09-03T02:19:13;98655.66;;;23.90;38.03
57574;BME280;43409;48.858;21.906;2022-09-03T02:21:46;98654.03;;;23.89;38.04
57574;BME280;43409;48.858;21.906;2022-09-03T02:24:13;98659.66;;;23.92;37.85
57574;BME280;43409;48.858;21.906;2022-09-03T02:26:38;98662.34;;;23.92;37.95
57574;BME280;43409;48.858;21.906;2022-09-03T02:29:04;98665.28;;;23.91;37.84
57574;BME280;43409;48.858;21.906;2022-09-03T02:31:30;98654.84;;;23.89;37.88
57574;BME280;43409;48.858;21.906;2022-09-03T02:33:56;98661.00;;;23.90;37.68
57574;BME280;43409;48.858;21.906;2022-09-03T02:36:38;98661.00;;;23.90;37.76
57574;BME280;43409;48.858;21.906;2022-09-03T02:39:05;98655.41;;;23.91;38.01
57574;BME280;43409;48.858;21.906;2022-09-03T02:41:31;98654.84;;;23.89;37.81
57574;BME280;43409;48.858;21.906;2022-09-03T02:44:17;98661.81;;;23.90;38.02
57574;BME280;43409;48.858;21.906;2022-09-03T02:46:58;98656.19;;;23.87;38.03
57574;BME280;43409;48.858;21.906;2022-09-03T02:49:24;98655.91;;;23.88;38.02
57574;BME280;43409;48.858;21.906;2022-09-03T02:51:49;98658.34;;;23.90;37.80
57574;BME280;43409;48.858;21.906;2022-09-03T02:54:15;98665.53;;;23.89;37.93
57574;BME280;43409;48.858;21.906;2022-09-03T02:56:40;98663.69;;;23.90;38.13
57574;BME280;43409;48.858;21.906;2022-09-03T02:59:07;98659.94;;;23.86;38.07
57574;BME280;43409;48.858;21.906;2022-09-03T03:01:34;98658.59;;;23.88;38.10
57574;BME280;43409;48.858;21.906;2022-09-03T03:04:00;98666.38;;;23.90;37.95
57574;BME280;43409;48.858;21.906;2022-09-03T03:06:26;98671.72;;;23.90;38.03
57574;BME280;43409;48.858;21.906;2022-09-03T03:08:51;98670.09;;;23.89;37.95
57574;BME280;43409;48.858;21.906;2022-09-03T03:11:20;98670.09;;;23.89;37.93
57574;BME280;43409;48.858;21.906;2022-09-03T03:13:46;98670.09;;;23.89;38.02
57574;BME280;43409;48.858;21.906;2022-09-03T03:16:12;98666.91;;;23.87;38.16
57574;BME280;43409;48.858;21.906;2022-09-03T03:18:38;98669.31;;;23.88;38.07
57574;BME280;43409;48.858;21.906;2022-09-03T03:21:08;98659.94;;;23.86;38.10
57574;BME280;43409;48.858;21.906;2022-09-03T03:23:35;98651.03;;;23.80;38.11
57574;BME280;43409;48.858;21.906;2022-09-03T03:26:05;98667.69;;;23.87;38.00
57574;BME280;43409;48.858;21.906;2022-09-03T03:28:31;98665.00;;;23.87;38.19
57574;BME280;43409;48.858;21.906;2022-09-03T03:31:25;98663.13;;;23.88;38.45
57574;BME280;43409;48.858;21.906;2022-09-03T03:33:54;98649.22;;;23.86;38.00
57574;BME280;43409;48.858;21.906;2022-09-03T03:36:21;98660.72;;;23.86;38.13
57574;BME280;43409;48.858;21.906;2022-09-03T03:38:47;98667.16;;;23.85;38.21
57574;BME280;43409;48.858;21.906;2022-09-03T03:41:17;98650.78;;;23.82;38.11
57574;BME280;43409;48.858;21.906;2022-09-03T03:43:43;98669.56;;;23.87;38.30
57574;BME280;43409;48.858;21.906;2022-09-03T03:46:09;98673.06;;;23.87;38.04
57574;BME280;43409;48.858;21.906;2022-09-03T03:48:35;98677.59;;;23.87;38.15
57574;BME280;43409;48.858;21.906;2022-09-03T03:51:02;98674.66;;;23.88;38.06
57574;BME280;43409;48.858;21.906;2022-09-03T03:53:31;98675.44;;;23.84;38.19
57574;BME280;43409;48.858;21.906;2022-09-03T03:55:57;98673.06;;;23.87;38.20
57574;BME280;43409;48.858;21.906;2022-09-03T03:58:23;98656.66;;;23.73;38.38
57574;BME280;43409;48.858;21.906;2022-09-03T04:00:50;98677.59;;;23.87;38.26
57574;BME280;43409;48.858;21.906;2022-09-03T04:03:16;98674.94;;;23.87;38.20
57574;BME280;43409;48.858;21.906;2022-09-03T04:05:41;98671.69;;;23.85;38.23
57574;BME280;43409;48.858;21.906;2022-09-03T04:08:07;98672.25;;;23.87;38.05
57574;BME280;43409;48.858;21.906;2022-09-03T04:10:32;98670.63;;;23.86;38.24
57574;BME280;43409;48.858;21.906;2022-09-03T04:12:58;98673.31;;;23.86;38.22
57574;BME280;43409;48.858;21.906;2022-09-03T04:15:25;98673.06;;;23.87;38.26
57574;BME280;43409;48.858;21.906;2022-09-03T04:17:53;98666.84;;;23.82;38.26
57574;BME280;43409;48.858;21.906;2022-09-03T04:20:19;98680.03;;;23.88;38.13
57574;BME280;43409;48.858;21.906;2022-09-03T04:22:44;98675.72;;;23.87;38.03
57574;BME280;43409;48.858;21.906;2022-09-03T04:25:10;98680.81;;;23.89;38.10
57574;BME280;43409;48.858;21.906;2022-09-03T04:27:35;98674.94;;;23.92;38.13
57574;BME280;43409;48.858;21.906;2022-09-03T04:30:01;98678.44;;;24.03;37.68
57574;BME280;43409;48.858;21.906;2022-09-03T04:32:26;98674.94;;;24.12;37.59
57574;BME280;43409;48.858;21.906;2022-09-03T04:35:10;98672.28;;;24.18;37.78
57574;BME280;43409;48.858;21.906;2022-09-03T04:37:35;98674.44;;;24.21;37.73
57574;BME280;43409;48.858;21.906;2022-09-03T04:40:01;98673.91;;;24.24;37.60
57574;BME280;43409;48.858;21.906;2022-09-03T04:42:26;98672.53;;;24.26;37.55
57574;BME280;43409;48.858;21.906;2022-09-03T04:44:52;98672.25;;;24.28;37.72
57574;BME280;43409;48.858;21.906;2022-09-03T04:47:17;98672.81;;;24.35;37.57
57574;BME280;43409;48.858;21.906;2022-09-03T04:49:42;98674.97;;;24.33;37.61
57574;BME280;43409;48.858;21.906;2022-09-03T04:52:08;98678.97;;;24.25;37.70
57574;BME280;43409;48.858;21.906;2022-09-03T04:54:34;98687.81;;;24.21;37.88
57574;BME280;43409;48.858;21.906;2022-09-03T04:56:59;98689.94;;;24.19;37.82
57574;BME280;43409;48.858;21.906;2022-09-03T04:59:25;98690.47;;;24.16;37.89
57574;BME280;43409;48.858;21.906;2022-09-03T05:01:50;98692.38;;;24.15;37.91
57574;BME280;43409;48.858;21.906;2022-09-03T05:04:20;98698.00;;;24.13;37.89
57574;BME280;43409;48.858;21.906;2022-09-03T05:06:45;98692.63;;;24.13;37.93
57574;BME280;43409;48.858;21.906;2022-09-03T05:09:11;98699.06;;;24.23;37.90
57574;BME280;43409;48.858;21.906;2022-09-03T05:11:36;98700.66;;;24.19;37.90
57574;BME280;43409;48.858;21.906;2022-09-03T05:14:02;98701.19;;;24.16;38.07
57574;BME280;43409;48.858;21.906;2022-09-03T05:16:31;98701.19;;;24.16;38.07
57574;BME280;43409;48.858;21.906;2022-09-03T05:18:58;98704.97;;;24.15;38.10
57574;BME280;43409;48.858;21.906;2022-09-03T05:21:24;98701.72;;;24.12;38.06
57574;BME280;43409;48.858;21.906;2022-09-03T05:23:51;98710.84;;;24.11;38.03
57574;BME280;43409;48.858;21.906;2022-09-03T05:26:26;98706.28;;;24.12;38.04
57574;BME280;43409;48.858;21.906;2022-09-03T05:28:54;98706.56;;;24.10;38.17
57574;BME280;43409;48.858;21.906;2022-09-03T05:31:21;98702.28;;;24.20;37.87
57574;BME280;43409;48.858;21.906;2022-09-03T05:33:51;98708.19;;;24.27;37.88
57574;BME280;43409;48.858;21.906;2022-09-03T05:36:22;98703.38;;;24.24;38.03
57574;BME280;43409;48.858;21.906;2022-09-03T05:38:48;98708.16;;;24.22;38.02
57574;BME280;43409;48.858;21.906;2022-09-03T05:41:15;98703.06;;;24.20;37.85
57574;BME280;43409;48.858;21.906;2022-09-03T05:43:42;98702.03;;;24.16;37.83
57574;BME280;43409;48.858;21.906;2022-09-03T05:46:10;98704.97;;;24.20;38.06
57574;BME280;43409;48.858;21.906;2022-09-03T05:48:37;98710.31;;;24.20;38.12
57574;BME280;43409;48.858;21.906;2022-09-03T05:51:05;98704.44;;;24.18;38.10
57574;BME280;43409;48.858;21.906;2022-09-03T05:53:33;98711.91;;;24.16;38.01
57574;BME280;43409;48.858;21.906;2022-09-03T05:56:00;98711.66;;;24.17;38.08
57574;BME280;43409;48.858;21.906;2022-09-03T05:58:33;98706.56;;;24.16;38.09
57574;BME280;43409;48.858;21.906;2022-09-03T06:01:08;98716.47;;;24.15;38.08
57574;BME280;43409;48.858;21.906;2022-09-03T06:03:33;98712.75;;;24.16;38.01
57574;BME280;43409;48.858;21.906;2022-09-03T06:05:59;98711.13;;;24.15;37.90
57574;BME280;43409;48.858;21.906;2022-09-03T06:08:24;98715.69;;;24.15;37.96
57574;BME280;43409;48.858;21.906;2022-09-03T06:10:56;98701.47;;;24.09;38.31
57574;BME280;43409;48.858;21.906;2022-09-03T06:13:22;98715.13;;;24.12;38.16
57574;BME280;43409;48.858;21.906;2022-09-03T06:15:47;98712.44;;;24.12;38.03
57574;BME280;43409;48.858;21.906;2022-09-03T06:18:13;98710.31;;;24.15;38.10
57574;BME280;43409;48.858;21.906;2022-09-03T06:20:38;98716.75;;;24.13;38.16
57574;BME280;43409;48.858;21.906;2022-09-03T06:23:03;98724.78;;;24.13;38.14
57574;BME280;43409;48.858;21.906;2022-09-03T06:25:29;98719.44;;;24.13;38.21
57574;BME280;43409;48.858;21.906;2022-09-03T06:27:55;98724.78;;;24.13;38.15
57574;BME280;43409;48.858;21.906;2022-09-03T06:30:20;98721.31;;;24.13;38.14
57574;BME280;43409;48.858;21.906;2022-09-03T06:32:47;98719.44;;;24.13;38.18
57574;BME280;43409;48.858;21.906;2022-09-03T06:35:15;98720.47;;;24.12;38.16
57574;BME280;43409;48.858;21.906;2022-09-03T06:37:41;98719.97;;;24.10;38.16
57574;BME280;43409;48.858;21.906;2022-09-03T06:40:08;98716.22;;;24.11;38.41
57574;BME280;43409;48.858;21.906;2022-09-03T06:42:37;98711.38;;;24.08;38.46
57574;BME280;43409;48.858;21.906;2022-09-03T06:45:03;98709.50;;;24.09;38.52
57574;BME280;43409;48.858;21.906;2022-09-03T06:47:29;98724.53;;;24.10;38.41
57574;BME280;43409;48.858;21.906;2022-09-03T06:49:54;98720.50;;;24.07;38.38
57574;BME280;43409;48.858;21.906;2022-09-03T06:52:19;98723.44;;;24.06;38.49
57574;BME280;43409;48.858;21.906;2022-09-03T06:54:45;98728.78;;;24.06;38.59
57574;BME280;43409;48.858;21.906;2022-09-03T06:57:10;98725.59;;;24.04;38.40
57574;BME280;43409;48.858;21.906;2022-09-03T06:59:35;98733.34;;;24.05;38.28
57574;BME280;43409;48.858;21.906;2022-09-03T07:02:01;98732.25;;;24.01;38.53
57574;BME280;43409;48.858;21.906;2022-09-03T07:04:27;98735.75;;;24.02;38.49
57574;BME280;43409;48.858;21.906;2022-09-03T07:06:53;98746.72;;;24.00;38.65
57574;BME280;43409;48.858;21.906;2022-09-03T07:09:18;98747.81;;;24.04;38.56
57574;BME280;43409;48.858;21.906;2022-09-03T07:11:44;98751.53;;;24.03;38.76
57574;BME280;43409;48.858;21.906;2022-09-03T07:14:11;98755.31;;;24.02;38.63
57574;BME280;43409;48.858;21.906;2022-09-03T07:16:37;98755.84;;;24.04;38.40
57574;BME280;43409;48.858;21.906;2022-09-03T07:19:04;98763.88;;;24.04;38.27
57574;BME280;43409;48.858;21.906;2022-09-03T07:21:32;98761.72;;;24.06;38.18
57574;BME280;43409;48.858;21.906;2022-09-03T07:23:58;98764.41;;;24.06;38.38
57574;BME280;43409;48.858;21.906;2022-09-03T07:26:29;98762.25;;;24.03;38.42
57574;BME280;43409;48.858;21.906;2022-09-03T07:28:55;98761.72;;;24.01;38.57
57574;BME280;43409;48.858;21.906;2022-09-03T07:31:24;98751.53;;;24.03;38.41
57574;BME280;43409;48.858;21.906;2022-09-03T07:34:11;98762.81;;;24.05;38.33
57574;BME280;43409;48.858;21.906;2022-09-03T07:36:42;98751.53;;;23.98;38.30
57574;BME280;43409;48.858;21.906;2022-09-03T07:39:09;98764.41;;;24.06;38.43
57574;BME280;43409;48.858;21.906;2022-09-03T07:41:39;98767.09;;;24.06;38.31
57574;BME280;43409;48.858;21.906;2022-09-03T07:44:11;98747.25;;;23.97;38.25
57574;BME280;43409;48.858;21.906;2022-09-03T07:46:37;98745.13;;;23.99;38.58
57574;BME280;43409;48.858;21.906;2022-09-03T07:49:04;98771.38;;;24.07;38.48
57574;BME280;43409;48.858;21.906;2022-09-03T07:51:35;98762.56;;;24.07;38.48
57574;BME280;43409;48.858;21.906;2022-09-03T07:54:03;98770.84;;;24.05;38.39
57574;BME280;43409;48.858;21.906;2022-09-03T07:56:31;98774.06;;;24.07;38.26
57574;BME280;43409;48.858;21.906;2022-09-03T07:58:57;98777.00;;;24.06;38.47
57574;BME280;43409;48.858;21.906;2022-09-03T08:01:24;98759.84;;;24.02;38.46
57574;BME280;43409;48.858;21.906;2022-09-03T08:03:51;98760.66;;;24.02;38.53
57574;BME280;43409;48.858;21.906;2022-09-03T08:06:19;98772.44;;;24.06;38.44
57574;BME280;43409;48.858;21.906;2022-09-03T08:08:45;98765.50;;;24.05;38.50
57574;BME280;43409;48.858;21.906;2022-09-03T08:13:40;98770.03;;;24.05;38.57
57574;BME280;43409;48.858;21.906;2022-09-03T08:16:12;98772.72;;;24.05;38.66
57574;BME280;43409;48.858;21.906;2022-09-03T08:18:38;98777.81;;;24.06;38.50
57574;BME280;43409;48.858;21.906;2022-09-03T08:21:09;98770.59;;;24.07;38.31
57574;BME280;43409;48.858;21.906;2022-09-03T08:23:38;98767.91;;;24.07;38.33
57574;BME280;43409;48.858;21.906;2022-09-03T08:26:05;98779.41;;;24.07;38.17
57574;BME280;43409;48.858;21.906;2022-09-03T08:28:31;98772.44;;;24.06;38.18
57574;BME280;43409;48.858;21.906;2022-09-03T08:31:06;98774.06;;;24.07;38.58
57574;BME280;43409;48.858;21.906;2022-09-03T08:33:34;98768.44;;;24.04;38.29
57574;BME280;43409;48.858;21.906;2022-09-03T08:36:10;98765.75;;;24.09;38.39
57574;BME280;43409;48.858;21.906;2022-09-03T08:38:40;98770.31;;;24.08;38.42
57574;BME280;43409;48.858;21.906;2022-09-03T08:41:16;98765.75;;;24.09;38.36
57574;BME280;43409;48.858;21.906;2022-09-03T08:44:08;98773.53;;;24.10;38.36
57574;BME280;43409;48.858;21.906;2022-09-03T08:47:06;98779.69;;;24.11;38.24
57574;BME280;43409;48.858;21.906;2022-09-03T08:52:36;98778.91;;;24.10;38.44
57574;BME280;43409;48.858;21.906;2022-09-03T08:57:50;98776.47;;;24.09;38.26
57574;BME280;43409;48.858;21.906;2022-09-03T09:00:18;98767.38;;;24.10;38.50
57574;BME280;43409;48.858;21.906;2022-09-03T09:05:16;98758.00;;;24.07;38.21
57574;BME280;43409;48.858;21.906;2022-09-03T09:07:54;98760.41;;;24.09;38.31
57574;BME280;43409;48.858;21.906;2022-09-03T09:10:26;98760.66;;;24.12;38.22
57574;BME280;43409;48.858;21.906;2022-09-03T09:21:37;98769.28;;;24.15;38.24
57574;BME280;43409;48.858;21.906;2022-09-03T09:24:17;98773.81;;;24.14;37.97
57574;BME280;43409;48.858;21.906;2022-09-03T09:26:46;98768.19;;;24.05;38.33
57574;BME280;43409;48.858;21.906;2022-09-03T09:29:13;98778.38;;;24.13;38.29
57574;BME280;43409;48.858;21.906;2022-09-03T09:31:40;98775.41;;;24.10;38.25
57574;BME280;43409;48.858;21.906;2022-09-03T09:34:10;98784.50;;;24.14;38.08
57574;BME280;43409;48.858;21.906;2022-09-03T09:39:08;98783.47;;;24.15;38.00
57574;BME280;43409;48.858;21.906;2022-09-03T09:41:34;98771.91;;;24.09;38.05
57574;BME280;43409;48.858;21.906;2022-09-03T09:44:01;98801.41;;;24.15;37.95
57574;BME280;43409;48.858;21.906;2022-09-03T09:46:38;98799.78;;;24.13;38.07
57574;BME280;43409;48.858;21.906;2022-09-03T09:49:29;98782.09;;;24.12;38.02
57574;BME280;43409;48.858;21.906;2022-09-03T09:52:15;98803.00;;;24.16;38.25
57574;BME280;43409;48.858;21.906;2022-09-03T09:54:42;98799.53;;;24.15;38.11
57574;BME280;43409;48.858;21.906;2022-09-03T09:57:20;98799.28;;;24.17;37.97
57574;BME280;43409;48.858;21.906;2022-09-03T09:59:46;98781.31;;;24.12;38.17
57574;BME280;43409;48.858;21.906;2022-09-03T10:04:39;98786.94;;;24.16;38.06
57574;BME280;43409;48.858;21.906;2022-09-03T10:07:35;98793.13;;;24.16;37.95
57574;BME280;43409;48.858;21.906;2022-09-03T10:10:20;98796.84;;;24.15;38.15
57574;BME280;43409;48.858;21.906;2022-09-03T10:13:15;98796.59;;;24.17;38.09
57574;BME280;43409;48.858;21.906;2022-09-03T10:15:50;98795.53;;;24.18;38.10
57574;BME280;43409;48.858;21.906;2022-09-03T10:18:42;98797.13;;;24.19;38.03
57574;BME280;43409;48.858;21.906;2022-09-03T10:21:21;98808.94;;;24.18;38.12
57574;BME280;43409;48.858;21.906;2022-09-03T10:26:53;98799.28;;;24.17;37.98
57574;BME280;43409;48.858;21.906;2022-09-03T10:29:21;98800.06;;;24.17;38.01
57574;BME280;43409;48.858;21.906;2022-09-03T10:34:51;98803.00;;;24.16;38.00
57574;BME280;43409;48.858;21.906;2022-09-03T10:40:16;98790.16;;;24.18;37.84
57574;BME280;43409;48.858;21.906;2022-09-03T10:48:06;98791.75;;;24.19;38.03
57574;BME280;43409;48.858;21.906;2022-09-03T10:53:11;98772.75;;;24.10;37.96
57574;BME280;43409;48.858;21.906;2022-09-03T10:58:22;98794.19;;;24.20;37.99
57574;BME280;43409;48.858;21.906;2022-09-03T11:00:53;98792.59;;;24.19;37.73
57574;BME280;43409;48.858;21.906;2022-09-03T11:06:26;98787.50;;;24.18;38.00
57574;BME280;43409;48.858;21.906;2022-09-03T11:08:57;98791.75;;;24.19;37.81
57574;BME280;43409;48.858;21.906;2022-09-03T11:11:36;98779.44;;;24.18;37.92
57574;BME280;43409;48.858;21.906;2022-09-03T11:14:10;98768.19;;;24.10;38.07
57574;BME280;43409;48.858;21.906;2022-09-03T11:16:40;98787.22;;;24.19;37.96
57574;BME280;43409;48.858;21.906;2022-09-03T11:19:15;98782.94;;;24.18;38.06
57574;BME280;43409;48.858;21.906;2022-09-03T11:21:42;98785.59;;;24.18;38.03
57574;BME280;43409;48.858;21.906;2022-09-03T11:24:26;98789.34;;;24.17;38.02
57574;BME280;43409;48.858;21.906;2022-09-03T11:30:12;98795.53;;;24.18;37.86
57574;BME280;43409;48.858;21.906;2022-09-03T11:37:59;98789.91;;;24.19;37.98
57574;BME280;43409;48.858;21.906;2022-09-03T11:40:35;98794.44;;;24.19;38.05
57574;BME280;43409;48.858;21.906;2022-09-03T11:43:13;98794.44;;;24.19;37.83
57574;BME280;43409;48.858;21.906;2022-09-03T11:48:41;98792.84;;;24.18;38.05
57574;BME280;43409;48.858;21.906;2022-09-03T11:51:37;98791.75;;;24.19;37.78
57574;BME280;43409;48.858;21.906;2022-09-03T11:54:24;98785.34;;;24.20;37.94
57574;BME280;43409;48.858;21.906;2022-09-03T11:57:01;98787.22;;;24.19;37.89
57574;BME280;43409;48.858;21.906;2022-09-03T11:59:28;98782.66;;;24.20;38.01
57574;BME280;43409;48.858;21.906;2022-09-03T12:02:24;98792.31;;;24.21;37.95
57574;BME280;43409;48.858;21.906;2022-09-03T12:10:40;98792.84;;;24.18;38.07
57574;BME280;43409;48.858;21.906;2022-09-03T12:18:32;98797.13;;;24.19;37.89
57574;BME280;43409;48.858;21.906;2022-09-03T12:21:01;98792.84;;;24.18;37.97
57574;BME280;43409;48.858;21.906;2022-09-03T12:25:57;98782.66;;;24.20;38.07
57574;BME280;43409;48.858;21.906;2022-09-03T12:28:25;98785.34;;;24.20;38.00
57574;BME280;43409;48.858;21.906;2022-09-03T12:30:52;98783.47;;;24.20;37.98
57574;BME280;43409;48.858;21.906;2022-09-03T12:33:20;98782.66;;;24.20;38.02
57574;BME280;43409;48.858;21.906;2022-09-03T12:35:59;98778.94;;;24.21;37.98
57574;BME280;43409;48.858;21.906;2022-09-03T12:38:27;98774.34;;;24.21;37.87
57574;BME280;43409;48.858;21.906;2022-09-03T12:40:53;98774.34;;;24.21;37.99
57574;BME280;43409;48.858;21.906;2022-09-03T12:43:19;98752.63;;;24.12;37.98
57574;BME280;43409;48.858;21.906;2022-09-03T12:45:47;98774.34;;;24.21;37.95
57574;BME280;43409;48.858;21.906;2022-09-03T12:48:17;98775.16;;;24.22;37.95
57574;BME280;43409;48.858;21.906;2022-09-03T12:50:48;98766.31;;;24.21;37.98
57574;BME280;43409;48.858;21.906;2022-09-03T12:53:21;98754.53;;;24.17;38.04
57574;BME280;43409;48.858;21.906;2022-09-03T12:55:51;98771.94;;;24.20;38.02
57574;BME280;43409;48.858;21.906;2022-09-03T13:01:10;98775.41;;;24.20;38.02
57574;BME280;43409;48.858;21.906;2022-09-03T13:04:01;98766.59;;;24.20;37.98
57574;BME280;43409;48.858;21.906;2022-09-03T13:06:32;98771.94;;;24.20;38.04
57574;BME280;43409;48.858;21.906;2022-09-03T13:09:00;98762.81;;;24.10;37.87
57574;BME280;43409;48.858;21.906;2022-09-03T13:11:27;98776.50;;;24.19;38.15
57574;BME280;43409;48.858;21.906;2022-09-03T13:14:05;98777.03;;;24.16;38.03
57574;BME280;43409;48.858;21.906;2022-09-03T13:32:41;98771.16;;;24.19;38.14
57574;BME280;43409;48.858;21.906;2022-09-03T13:37:47;98781.88;;;24.19;38.06
57574;BME280;43409;48.858;21.906;2022-09-03T13:42:42;98757.47;;;24.10;37.80
57574;BME280;43409;48.858;21.906;2022-09-03T13:45:20;98761.75;;;24.22;38.11
57574;BME280;43409;48.858;21.906;2022-09-03T13:48:19;98760.97;;;24.21;38.07
57574;BME280;43409;48.858;21.906;2022-09-03T13:51:05;98762.84;;;24.21;37.98
57574;BME280;43409;48.858;21.906;2022-09-03T13:56:43;98766.31;;;24.21;38.07
57574;BME280;43409;48.858;21.906;2022-09-03T13:59:19;98762.03;;;24.20;38.12
57574;BME280;43409;48.858;21.906;2022-09-03T14:01:54;98761.22;;;24.20;37.86
57574;BME280;43409;48.858;21.906;2022-09-03T14:07:14;98763.13;;;24.19;38.01
57574;BME280;43409;48.858;21.906;2022-09-03T14:12:43;98757.75;;;24.19;37.93
57574;BME280;43409;48.858;21.906;2022-09-03T14:15:25;98771.94;;;24.20;37.99
57574;BME280;43409;48.858;21.906;2022-09-03T14:20:55;98773.00;;;24.19;38.07
57574;BME280;43409;48.858;21.906;2022-09-03T14:26:27;98779.72;;;24.21;38.00
57574;BME280;43409;48.858;21.906;2022-09-03T14:29:17;98772.75;;;24.20;38.05
57574;BME280;43409;48.858;21.906;2022-09-03T14:35:09;98778.66;;;24.22;38.11
57574;BME280;43409;48.858;21.906;2022-09-03T14:40:45;98764.69;;;24.20;38.11
57574;BME280;43409;48.858;21.906;2022-09-03T15:00:15;98763.38;;;24.18;37.96
57574;BME280;43409;48.858;21.906;2022-09-03T15:11:01;98782.66;;;24.20;38.11
57574;BME280;43409;48.858;21.906;2022-09-03T15:13:32;98786.41;;;24.19;38.06
57574;BME280;43409;48.858;21.906;2022-09-03T15:16:07;98786.41;;;24.19;37.97
57574;BME280;43409;48.858;21.906;2022-09-03T15:24:09;98790.97;;;24.18;38.12
57574;BME280;43409;48.858;21.906;2022-09-03T15:29:24;98773.28;;;24.12;38.11
57574;BME280;43409;48.858;21.906;2022-09-03T15:31:54;98790.16;;;24.18;38.05
57574;BME280;43409;48.858;21.906;2022-09-03T15:36:53;98784.81;;;24.18;37.97
57574;BME280;43409;48.858;21.906;2022-09-03T15:39:29;98787.50;;;24.18;38.02
57574;BME280;43409;48.858;21.906;2022-09-03T15:42:05;98785.59;;;24.18;38.03
57574;BME280;43409;48.858;21.906;2022-09-03T15:44:45;98784.81;;;24.18;38.07
57574;BME280;43409;48.858;21.906;2022-09-03T15:50:29;98787.50;;;24.18;38.10
57574;BME280;43409;48.858;21.906;2022-09-03T15:55:36;98785.88;;;24.17;38.01
57574;BME280;43409;48.858;21.906;2022-09-03T15:58:24;98781.56;;;24.16;37.97
57574;BME280;43409;48.858;21.906;2022-09-03T16:01:02;98785.34;;;24.15;37.98
57574;BME280;43409;48.858;21.906;2022-09-03T16:03:43;98792.28;;;24.16;38.06
57574;BME280;43409;48.858;21.906;2022-09-03T16:09:24;98789.63;;;24.16;38.07
57574;BME280;43409;48.858;21.906;2022-09-03T16:14:40;98794.97;;;24.16;38.15
57574;BME280;43409;48.858;21.906;2022-09-03T16:17:24;98796.06;;;24.15;38.02
57574;BME280;43409;48.858;21.906;2022-09-03T16:22:46;98797.91;;;24.14;38.02
57574;BME280;43409;48.858;21.906;2022-09-03T16:25:16;98797.91;;;24.14;38.03
57574;BME280;43409;48.858;21.906;2022-09-03T16:27:54;98803.53;;;24.12;37.93
57574;BME280;43409;48.858;21.906;2022-09-03T16:38:48;98814.25;;;24.12;38.04
57574;BME280;43409;48.858;21.906;2022-09-03T16:44:15;98808.38;;;24.10;37.91
57574;BME280;43409;48.858;21.906;2022-09-03T16:55:33;98802.47;;;24.08;38.10
57574;BME280;43409;48.858;21.906;2022-09-03T16:58:16;98807.84;;;24.08;38.16
57574;BME280;43409;48.858;21.906;2022-09-03T17:12:07;98813.72;;;24.05;38.19
57574;BME280;43409;48.858;21.906;2022-09-03T17:15:19;98819.88;;;24.06;38.11
57574;BME280;43409;48.858;21.906;2022-09-03T17:20:58;98828.16;;;24.04;38.06